Time;durP1;ratioP1;P1;durP2;ratioP2;P2;SDS_P1;SDS_P2;PMS_P1;PMS_P2;Temp;Humidity;BMP_temperature;BMP_pressure;BME280_temperature;BME280_humidity;BME280_pressure;Samples;Min_cycle;Max_cycle;Signal;HPM_P1;HPM_P2
2023/04/09 00:00:24;;;;;;;41.63;28.85;;;;;;;;;;4997554;28;20026;-91
2023/04/09 00:02:51;;;;;;;41.35;27.25;;;;;;;;;;4997187;28;20053;-92
2023/04/09 00:05:17;;;;;;;40.28;27.30;;;;;;;;;;4998124;28;20023;-92
2023/04/09 00:07:43;;;;;;;37.85;27.15;;;;;;;;;;4997172;28;20043;-93
2023/04/09 00:10:27;;;;;;;35.28;26.25;;;;;;;;;;4997174;28;20034;-91
2023/04/09 00:12:53;;;;;;;38.13;26.55;;;;;;;;;;4997250;28;20035;-92
2023/04/09 00:15:19;;;;;;;37.63;26.85;;;;;;;;;;5000985;28;20114;-93
2023/04/09 00:17:45;;;;;;;36.65;27.30;;;;;;;;;;5001001;28;20038;-93
2023/04/09 00:20:12;;;;;;;38.85;27.65;;;;;;;;;;5002231;28;20357;-92
2023/04/09 00:22:38;;;;;;;42.28;28.10;;;;;;;;;;5002090;28;20069;-92
2023/04/09 00:25:04;;;;;;;38.55;26.98;;;;;;;;;;5000916;28;20121;-90
2023/04/09 00:27:30;;;;;;;42.17;28.05;;;;;;;;;;5001265;28;20022;-91
2023/04/09 00:29:56;;;;;;;37.45;27.73;;;;;;;;;;5002004;28;20034;-92
2023/04/09 00:32:22;;;;;;;36.55;24.77;;;;;;;;;;5002030;28;20333;-91
2023/04/09 00:34:49;;;;;;;37.80;25.75;;;;;;;;;;5000711;28;20030;-91
2023/04/09 00:37:15;;;;;;;37.75;26.65;;;;;;;;;;5001718;28;20073;-92
2023/04/09 00:45:30;;;;;;;38.28;25.35;;;;;;;;;;4981987;28;20037;-93
2023/04/09 00:47:57;;;;;;;38.45;25.52;;;;;;;;;;4982253;28;20019;-91
2023/04/09 00:50:23;;;;;;;36.25;25.75;;;;;;;;;;4981853;28;20051;-90
2023/04/09 00:52:50;;;;;;;36.88;25.20;;;;;;;;;;4982490;28;20072;-91
2023/04/09 00:55:16;;;;;;;35.42;24.80;;;;;;;;;;4982049;28;20066;-91
2023/04/09 00:57:42;;;;;;;31.85;24.17;;;;;;;;;;4980742;28;20037;-92
2023/04/09 01:00:10;;;;;;;32.42;23.75;;;;;;;;;;4981837;28;20031;-93
2023/04/09 01:02:36;;;;;;;34.97;24.05;;;;;;;;;;4981859;28;20078;-92
2023/04/09 01:05:02;;;;;;;32.55;24.38;;;;;;;;;;4981823;28;20037;-92
2023/04/09 01:07:38;;;;;;;33.40;24.58;;;;;;;;;;4982016;28;20094;-94
2023/04/09 01:10:10;;;;;;;35.20;23.85;;;;;;;;;;4980973;28;20132;-94
2023/04/09 01:12:45;;;;;;;32.42;23.45;;;;;;;;;;4981426;28;20022;-91
2023/04/09 01:15:14;;;;;;;34.60;24.15;;;;;;;;;;4980418;28;20051;-91
2023/04/09 01:17:46;;;;;;;31.50;23.02;;;;;;;;;;4981869;28;20039;-91
2023/04/09 01:20:16;;;;;;;32.60;23.52;;;;;;;;;;4980978;28;20035;-91
2023/04/09 01:22:49;;;;;;;33.35;23.92;;;;;;;;;;4981496;28;20088;-92
2023/04/09 01:25:15;;;;;;;;;;;;;;;;;;4981583;28;20022;-92
2023/04/09 01:27:53;;;;;;;33.72;24.42;;;;;;;;;;4980161;28;19906;-92
2023/04/09 01:30:19;;;;;;;33.35;24.50;;;;;;;;;;4981019;28;20038;-92
2023/04/09 01:32:46;;;;;;;33.00;23.25;;;;;;;;;;4981109;28;20026;-92
2023/04/09 01:35:12;;;;;;;32.65;24.08;;;;;;;;;;4980085;28;20027;-92
2023/04/09 01:37:39;;;;;;;32.55;23.48;;;;;;;;;;4980934;28;20045;-93
2023/04/09 01:43:09;;;;;;;29.33;22.00;;;;;;;;;;5000541;28;20034;-90
2023/04/09 01:45:36;;;;;;;34.13;24.92;;;;;;;;;;4999360;28;20064;-91
2023/04/09 01:48:03;;;;;;;34.40;25.08;;;;;;;;;;5000580;28;20025;-91
2023/04/09 01:50:29;;;;;;;34.05;26.05;;;;;;;;;;4999683;28;20101;-92
2023/04/09 01:52:55;;;;;;;36.58;24.83;;;;;;;;;;5000204;28;20529;-90
2023/04/09 01:58:25;;;;;;;38.58;26.88;;;;;;;;;;5000355;28;20137;-92
2023/04/09 02:00:55;;;;;;;42.90;28.48;;;;;;;;;;4999319;28;20026;-93
2023/04/09 02:03:23;;;;;;;43.28;29.70;;;;;;;;;;4999446;28;20018;-94
2023/04/09 02:06:03;;;;;;;43.63;28.70;;;;;;;;;;4999905;28;20044;-94
2023/04/09 02:08:30;;;;;;;43.75;28.02;;;;;;;;;;4999808;28;20425;-93
2023/04/09 02:14:00;;;;;;;40.47;27.55;;;;;;;;;;4999662;28;20021;-94
2023/04/09 02:16:26;;;;;;;39.80;27.13;;;;;;;;;;5000135;28;20026;-93
2023/04/09 02:18:56;;;;;;;37.17;26.52;;;;;;;;;;4999060;28;20333;-92
2023/04/09 02:21:22;;;;;;;33.75;25.27;;;;;;;;;;4999794;28;20057;-92
2023/04/09 02:23:49;;;;;;;32.60;24.05;;;;;;;;;;4999622;28;20027;-93
2023/04/09 02:29:18;;;;;;;32.60;23.02;;;;;;;;;;4980414;28;20106;-91
2023/04/09 02:31:44;;;;;;;30.10;21.63;;;;;;;;;;4979151;28;20046;-91
2023/04/09 02:34:10;;;;;;;30.90;23.35;;;;;;;;;;4980681;28;20025;-91
2023/04/09 02:36:36;;;;;;;30.83;22.60;;;;;;;;;;4979925;28;20030;-91
2023/04/09 02:39:03;;;;;;;31.77;24.02;;;;;;;;;;4978299;28;20035;-91
2023/04/09 02:44:32;;;;;;;30.00;22.23;;;;;;;;;;4980058;28;20452;-91
2023/04/09 02:46:58;;;;;;;30.25;23.35;;;;;;;;;;4984402;28;20061;-91
2023/04/09 02:49:25;;;;;;;30.95;22.67;;;;;;;;;;4999374;28;20023;-92
2023/04/09 02:51:51;;;;;;;29.27;22.30;;;;;;;;;;4999217;28;20038;-93
2023/04/09 02:54:17;;;;;;;29.15;22.15;;;;;;;;;;4998990;28;20302;-92
2023/04/09 02:56:43;;;;;;;29.52;22.73;;;;;;;;;;4999452;28;20030;-91
2023/04/09 02:59:09;;;;;;;28.70;22.33;;;;;;;;;;4998086;28;20022;-91
2023/04/09 03:01:35;;;;;;;29.40;22.02;;;;;;;;;;4999181;28;20106;-92
2023/04/09 03:04:02;;;;;;;29.77;22.60;;;;;;;;;;4999127;28;20090;-92
2023/04/09 03:06:28;;;;;;;28.00;21.38;;;;;;;;;;4997926;28;20049;-92
2023/04/09 03:08:54;;;;;;;28.73;21.83;;;;;;;;;;4997957;28;20113;-91
2023/04/09 03:14:37;;;;;;;28.30;21.85;;;;;;;;;;4998794;28;20045;-87
2023/04/09 03:17:03;;;;;;;28.60;21.10;;;;;;;;;;4998755;28;20042;-93
2023/04/09 03:19:30;;;;;;;29.90;21.20;;;;;;;;;;4997449;28;20065;-93
2023/04/09 03:21:56;;;;;;;29.75;22.63;;;;;;;;;;4979428;28;20409;-94
2023/04/09 03:24:22;;;;;;;29.95;22.60;;;;;;;;;;4979494;28;20058;-93
2023/04/09 03:29:55;;;;;;;31.20;22.08;;;;;;;;;;4979439;28;20073;-93
2023/04/09 03:32:21;;;;;;;27.27;20.38;;;;;;;;;;4978871;28;20030;-93
2023/04/09 03:34:47;;;;;;;28.65;21.33;;;;;;;;;;4978121;28;20034;-94
2023/04/09 03:37:13;;;;;;;29.67;22.23;;;;;;;;;;4979245;28;20449;-93
2023/04/09 03:39:39;;;;;;;30.95;22.40;;;;;;;;;;4979107;28;20065;-93
2023/04/09 03:42:24;;;;;;;28.63;20.73;;;;;;;;;;4979038;28;20058;-94
2023/04/09 03:44:53;;;;;;;29.00;21.85;;;;;;;;;;4978773;28;20030;-92
2023/04/09 03:47:19;;;;;;;30.08;21.98;;;;;;;;;;4988375;28;20037;-92
2023/04/09 03:49:45;;;;;;;31.98;23.77;;;;;;;;;;4998400;28;20026;-94
2023/04/09 03:52:11;;;;;;;30.80;23.08;;;;;;;;;;4998069;28;20118;-93
2023/04/09 03:54:37;;;;;;;33.22;23.30;;;;;;;;;;4997544;28;20053;-93
2023/04/09 04:00:08;;;;;;;37.92;24.67;;;;;;;;;;4998478;28;20032;-94
2023/04/09 04:02:34;;;;;;;35.00;25.63;;;;;;;;;;5017899;28;20030;-94
2023/04/09 04:05:00;;;;;;;37.03;25.20;;;;;;;;;;5017886;28;20032;-93
2023/04/09 04:07:26;;;;;;;36.85;25.95;;;;;;;;;;5018122;28;20056;-92
2023/04/09 04:09:52;;;;;;;35.05;24.35;;;;;;;;;;5017662;28;20033;-93
2023/04/09 04:12:18;;;;;;;33.05;24.27;;;;;;;;;;5017946;28;20029;-90
2023/04/09 04:14:44;;;;;;;34.40;25.58;;;;;;;;;;5010391;28;20111;-91
2023/04/09 04:17:10;;;;;;;40.25;28.10;;;;;;;;;;4977613;28;20031;-91
2023/04/09 04:19:37;;;;;;;47.17;30.20;;;;;;;;;;4978302;28;20027;-91
2023/04/09 04:22:03;;;;;;;41.63;27.05;;;;;;;;;;4977421;28;20050;-92
2023/04/09 04:24:29;;;;;;;35.90;25.45;;;;;;;;;;4977771;28;20019;-92
2023/04/09 04:26:55;;;;;;;32.55;24.75;;;;;;;;;;4985416;28;20026;-94
2023/04/09 04:29:21;;;;;;;32.72;24.48;;;;;;;;;;4998266;28;20401;-93
2023/04/09 04:31:47;;;;;;;34.85;25.00;;;;;;;;;;4996929;28;20070;-93
2023/04/09 04:34:13;;;;;;;34.58;23.38;;;;;;;;;;4997751;28;20034;-93
2023/04/09 04:36:39;;;;;;;31.73;24.55;;;;;;;;;;4996834;28;20026;-92
2023/04/09 04:39:05;;;;;;;34.58;24.15;;;;;;;;;;4996883;28;20034;-91
2023/04/09 04:44:48;;;;;;;33.63;21.77;;;;;;;;;;4997893;28;20428;-91
2023/04/09 04:47:15;;;;;;;34.22;23.92;;;;;;;;;;4985911;28;20119;-94
2023/04/09 04:49:41;;;;;;;32.65;23.50;;;;;;;;;;4978584;28;20053;-92
2023/04/09 04:52:07;;;;;;;31.95;24.00;;;;;;;;;;4978676;28;20037;-92
2023/04/09 04:54:33;;;;;;;33.58;24.38;;;;;;;;;;4977628;28;20109;-90
2023/04/09 04:57:00;;;;;;;35.95;25.33;;;;;;;;;;4976933;28;20059;-91
2023/04/09 04:59:26;;;;;;;36.80;25.33;;;;;;;;;;4978427;28;20026;-91
2023/04/09 05:01:52;;;;;;;38.05;26.45;;;;;;;;;;4980791;28;20030;-92
2023/04/09 05:04:18;;;;;;;37.08;25.25;;;;;;;;;;4981718;28;20110;-92
2023/04/09 05:06:44;;;;;;;32.83;24.10;;;;;;;;;;4980794;28;20031;-92
2023/04/09 05:09:10;;;;;;;32.25;24.90;;;;;;;;;;4981900;28;20038;-93
2023/04/09 05:11:36;;;;;;;37.92;28.00;;;;;;;;;;4981698;28;20038;-93
2023/04/09 05:14:03;;;;;;;36.30;26.40;;;;;;;;;;4981532;28;20050;-93
2023/04/09 05:16:30;;;;;;;35.90;24.27;;;;;;;;;;4980517;28;20039;-92
2023/04/09 05:18:56;;;;;;;35.65;25.27;;;;;;;;;;4980613;28;20421;-92
2023/04/09 05:21:22;;;;;;;33.13;25.00;;;;;;;;;;4981293;28;20022;-92
2023/04/09 05:23:49;;;;;;;37.28;24.70;;;;;;;;;;4980519;28;20019;-92
2023/04/09 05:26:15;;;;;;;33.88;25.42;;;;;;;;;;4980588;28;20077;-91
2023/04/09 05:28:41;;;;;;;31.63;24.30;;;;;;;;;;4981297;28;20027;-91
2023/04/09 05:31:11;;;;;;;35.92;26.65;;;;;;;;;;4980633;28;20027;-91
2023/04/09 05:33:37;;;;;;;39.42;27.52;;;;;;;;;;4981371;28;20030;-91
2023/04/09 05:36:04;;;;;;;36.00;25.67;;;;;;;;;;4980445;28;20042;-92
2023/04/09 05:38:30;;;;;;;41.08;28.58;;;;;;;;;;4981135;28;20358;-92
2023/04/09 05:40:56;;;;;;;39.00;28.00;;;;;;;;;;4980977;28;20027;-92
2023/04/09 05:43:22;;;;;;;40.88;28.88;;;;;;;;;;4980971;28;20026;-92
2023/04/09 05:45:48;;;;;;;35.28;26.00;;;;;;;;;;4980828;28;20023;-91
2023/04/09 05:48:15;;;;;;;38.47;27.60;;;;;;;;;;4979936;28;20081;-92
2023/04/09 05:50:41;;;;;;;36.60;27.00;;;;;;;;;;4980018;28;20023;-92
2023/04/09 05:53:08;;;;;;;34.22;26.50;;;;;;;;;;4980594;28;20496;-92
2023/04/09 05:55:34;;;;;;;37.78;27.80;;;;;;;;;;4979804;28;20053;-92
2023/04/09 06:01:23;;;;;;;42.22;26.00;;;;;;;;;;4980952;28;20062;-94
2023/04/09 06:03:49;;;;;;;34.50;25.13;;;;;;;;;;4980558;28;20022;-93
2023/04/09 06:06:15;;;;;;;34.15;25.50;;;;;;;;;;4979764;28;20031;-94
2023/04/09 06:08:41;;;;;;;39.22;28.17;;;;;;;;;;4980814;28;20429;-94
2023/04/09 06:11:13;;;;;;;44.45;30.65;;;;;;;;;;4980444;28;20041;-94
2023/04/09 06:13:40;;;;;;;46.92;29.75;;;;;;;;;;4979687;28;20023;-93
2023/04/09 06:16:07;;;;;;;36.85;28.33;;;;;;;;;;4980546;28;20050;-93
2023/04/09 06:18:33;;;;;;;37.80;26.35;;;;;;;;;;4979308;28;20045;-93
2023/04/09 06:21:03;;;;;;;36.55;26.17;;;;;;;;;;4983495;28;20030;-94
2023/04/09 06:23:29;;;;;;;39.20;28.38;;;;;;;;;;5000018;28;20023;-91
2023/04/09 06:25:55;;;;;;;37.97;26.95;;;;;;;;;;4999327;28;20023;-91
2023/04/09 06:28:22;;;;;;;38.58;26.65;;;;;;;;;;4999522;28;20022;-91
2023/04/09 06:30:48;;;;;;;39.92;28.20;;;;;;;;;;4998610;28;20019;-91
2023/04/09 06:33:14;;;;;;;42.92;28.92;;;;;;;;;;4998283;28;20026;-92
2023/04/09 06:35:40;;;;;;;39.97;28.80;;;;;;;;;;4979666;28;20074;-89
2023/04/09 06:38:08;;;;;;;38.55;28.15;;;;;;;;;;4980204;28;20031;-95
2023/04/09 06:40:37;;;;;;;40.58;28.25;;;;;;;;;;4986579;28;20025;-93
2023/04/09 06:43:03;;;;;;;38.50;28.63;;;;;;;;;;4999464;28;20031;-93
2023/04/09 06:45:31;;;;;;;37.92;27.25;;;;;;;;;;4999458;28;20022;-93
2023/04/09 06:48:03;;;;;;;39.17;27.17;;;;;;;;;;4998958;28;20440;-93
2023/04/09 06:50:30;;;;;;;42.22;28.00;;;;;;;;;;5001697;28;20027;-95
2023/04/09 06:52:57;;;;;;;41.15;28.55;;;;;;;;;;4995997;28;20038;-96
2023/04/09 06:55:25;;;;;;;38.90;28.17;;;;;;;;;;4996133;28;20360;-95
2023/04/09 06:57:53;;;;;;;46.13;33.88;;;;;;;;;;5004404;28;20054;-95
2023/04/09 07:00:21;;;;;;;46.05;31.58;;;;;;;;;;5005927;28;20042;-95
2023/04/09 07:02:48;;;;;;;45.88;30.77;;;;;;;;;;5003314;28;20076;-95
2023/04/09 07:05:14;;;;;;;41.53;29.02;;;;;;;;;;4999584;28;20038;-94
2023/04/09 07:07:40;;;;;;;43.35;29.80;;;;;;;;;;4999055;28;20027;-94
2023/04/09 07:10:07;;;;;;;42.40;29.73;;;;;;;;;;4995254;28;20018;-94
2023/04/09 07:15:38;;;;;;;40.97;28.33;;;;;;;;;;4963821;28;20058;-92
2023/04/09 07:18:04;;;;;;;37.38;26.92;;;;;;;;;;4980153;28;20090;-94
2023/04/09 07:20:33;;;;;;;38.65;27.88;;;;;;;;;;4983433;28;20031;-94
2023/04/09 07:22:59;;;;;;;39.22;28.60;;;;;;;;;;4982109;28;20031;-94
2023/04/09 07:25:25;;;;;;;41.20;28.45;;;;;;;;;;4980172;28;20022;-94
2023/04/09 07:27:51;;;;;;;36.53;27.10;;;;;;;;;;4979076;28;20019;-95
2023/04/09 07:30:18;;;;;;;38.42;27.75;;;;;;;;;;4979825;28;20037;-94
2023/04/09 07:32:44;;;;;;;44.65;32.35;;;;;;;;;;4980140;28;20034;-94
2023/04/09 07:35:10;;;;;;;37.65;27.70;;;;;;;;;;4979108;28;20510;-94
2023/04/09 07:37:36;;;;;;;37.05;28.00;;;;;;;;;;4980125;28;20066;-96
2023/04/09 07:40:02;;;;;;;35.95;26.80;;;;;;;;;;4978394;28;20030;-93
2023/04/09 07:46:09;;;;;;;44.42;27.65;;;;;;;;;;4997396;28;20052;-93
2023/04/09 07:48:35;;;;;;;37.45;26.58;;;;;;;;;;4997370;28;20031;-94
2023/04/09 07:51:01;;;;;;;37.22;26.33;;;;;;;;;;4998249;28;20424;-94
2023/04/09 07:53:27;;;;;;;40.90;27.95;;;;;;;;;;4998789;28;20073;-92
2023/04/09 07:55:53;;;;;;;36.10;26.55;;;;;;;;;;4998862;28;20102;-95
2023/04/09 08:02:14;;;;;;;39.17;25.25;;;;;;;;;;4999790;28;20038;-94
2023/04/09 08:04:40;;;;;;;37.35;27.45;;;;;;;;;;4998293;28;20026;-94
2023/04/09 08:07:07;;;;;;;39.38;26.48;;;;;;;;;;4987063;28;20043;-92
2023/04/09 08:09:33;;;;;;;37.85;25.40;;;;;;;;;;4983369;28;20037;-91
2023/04/09 08:11:59;;;;;;;34.08;25.67;;;;;;;;;;4998031;28;20030;-91
2023/04/09 08:14:26;;;;;;;30.63;23.70;;;;;;;;;;4997413;28;20038;-92
2023/04/09 08:16:52;;;;;;;39.28;25.42;;;;;;;;;;4981651;28;20047;-91
2023/04/09 08:19:19;;;;;;;32.03;24.45;;;;;;;;;;4977748;28;20034;-91
2023/04/09 08:21:47;;;;;;;35.38;25.88;;;;;;;;;;4977709;28;20039;-91
2023/04/09 08:24:13;;;;;;;33.20;24.73;;;;;;;;;;4977682;28;20029;-91
2023/04/09 08:26:40;;;;;;;32.95;24.80;;;;;;;;;;4977634;28;20018;-91
2023/04/09 08:29:43;;;;;;;28.48;21.73;;;;;;;;;;4977558;28;20444;-90
2023/04/09 08:32:10;;;;;;;32.55;23.67;;;;;;;;;;4978546;28;20054;-91
2023/04/09 08:34:36;;;;;;;30.23;22.10;;;;;;;;;;4978412;28;20117;-91
2023/04/09 08:37:02;;;;;;;32.03;23.45;;;;;;;;;;4980092;28;20472;-91
2023/04/09 08:39:28;;;;;;;35.60;26.38;;;;;;;;;;4981208;28;20037;-93
2023/04/09 08:41:58;;;;;;;38.95;27.45;;;;;;;;;;4981208;28;20041;-90
2023/04/09 08:44:28;;;;;;;37.55;27.08;;;;;;;;;;4992811;28;20090;-90
2023/04/09 08:46:54;;;;;;;38.22;28.35;;;;;;;;;;5000463;28;20065;-91
2023/04/09 08:49:20;;;;;;;36.08;26.88;;;;;;;;;;5000243;28;20054;-91
2023/04/09 08:51:47;;;;;;;36.05;25.85;;;;;;;;;;4982029;28;20027;-91
2023/04/09 08:54:18;;;;;;;35.25;25.88;;;;;;;;;;4981204;28;20428;-91
2023/04/09 08:56:45;;;;;;;33.35;26.20;;;;;;;;;;4982248;28;20038;-91
2023/04/09 08:59:14;;;;;;;32.75;25.00;;;;;;;;;;4981899;28;20035;-91
2023/04/09 09:01:40;;;;;;;38.08;27.00;;;;;;;;;;5004033;28;20034;-95
2023/04/09 09:04:07;;;;;;;33.10;25.23;;;;;;;;;;4999538;28;20153;-94
2023/04/09 09:06:38;;;;;;;32.10;24.30;;;;;;;;;;5003266;28;20038;-96
2023/04/09 09:09:18;;;;;;;34.00;25.65;;;;;;;;;;4994222;28;20027;-96
2023/04/09 09:11:45;;;;;;;33.72;25.83;;;;;;;;;;4981918;28;20034;-93
2023/04/09 09:17:15;;;;;;;35.88;26.88;;;;;;;;;;4981338;28;20049;-92
2023/04/09 09:19:41;;;;;;;36.17;25.67;;;;;;;;;;4980531;28;20034;-92
2023/04/09 09:22:07;;;;;;;36.47;26.42;;;;;;;;;;4999348;28;20037;-93
2023/04/09 09:24:34;;;;;;;33.90;26.70;;;;;;;;;;4992240;28;20030;-93
2023/04/09 09:27:01;;;;;;;32.45;24.45;;;;;;;;;;4996018;28;20068;-94
2023/04/09 09:32:52;;;;;;;35.47;26.63;;;;;;;;;;5000825;28;20034;-93
2023/04/09 09:35:22;;;;;;;36.38;27.23;;;;;;;;;;4996379;28;20107;-96
2023/04/09 09:37:59;;;;;;;37.20;27.88;;;;;;;;;;4981304;28;20035;-95
2023/04/09 09:40:27;;;;;;;44.30;30.70;;;;;;;;;;4980095;28;20039;-94
2023/04/09 09:49:00;;;;;;;57.97;32.20;;;;;;;;;;4981865;28;20033;-95
2023/04/09 09:51:27;;;;;;;43.15;29.50;;;;;;;;;;4990997;28;20062;-93
2023/04/09 09:53:55;;;;;;;33.67;25.77;;;;;;;;;;4990157;28;20037;-93
2023/04/09 09:56:24;;;;;;;36.97;26.95;;;;;;;;;;4988459;28;20164;-93
2023/04/09 10:02:02;;;;;;;34.00;25.50;;;;;;;;;;4984610;28;20118;-79
2023/04/09 10:04:34;;;;;;;38.33;26.17;;;;;;;;;;4979773;28;20050;-78
2023/04/09 10:07:02;;;;;;;33.88;26.92;;;;;;;;;;4998853;28;20022;-78
2023/04/09 10:09:29;;;;;;;34.65;27.17;;;;;;;;;;4999317;28;20026;-78
2023/04/09 10:11:55;;;;;;;37.67;27.38;;;;;;;;;;4999414;28;20425;-79
2023/04/09 10:14:22;;;;;;;36.78;27.92;;;;;;;;;;4997472;28;20054;-78
2023/04/09 10:16:48;;;;;;;34.80;26.50;;;;;;;;;;4998724;28;20038;-79
2023/04/09 10:19:15;;;;;;;34.80;25.95;;;;;;;;;;4999289;28;20329;-78
2023/04/09 10:21:45;;;;;;;34.72;27.65;;;;;;;;;;4998232;28;20337;-78
2023/04/09 10:24:11;;;;;;;35.58;26.55;;;;;;;;;;4999224;28;20034;-78
2023/04/09 10:26:40;;;;;;;36.88;26.85;;;;;;;;;;4999065;28;20022;-78
2023/04/09 10:29:07;;;;;;;36.08;26.70;;;;;;;;;;4989590;28;20029;-79
2023/04/09 10:31:52;;;;;;;33.38;25.52;;;;;;;;;;4981675;28;20250;-78
2023/04/09 10:34:21;;;;;;;35.55;26.25;;;;;;;;;;4979490;28;20027;-78
2023/04/09 10:36:52;;;;;;;32.30;26.33;;;;;;;;;;4979538;28;20077;-79
2023/04/09 10:39:18;;;;;;;36.85;28.10;;;;;;;;;;4979394;28;20077;-78
2023/04/09 10:41:46;;;;;;;35.00;27.25;;;;;;;;;;4979217;28;20074;-79
2023/04/09 10:44:25;;;;;;;35.15;25.95;;;;;;;;;;4979892;28;20031;-78
2023/04/09 10:46:55;;;;;;;34.95;26.35;;;;;;;;;;4998513;28;20061;-78
2023/04/09 10:49:25;;;;;;;31.23;24.23;;;;;;;;;;4992272;28;20031;-78
2023/04/09 10:52:05;;;;;;;34.80;26.92;;;;;;;;;;4978940;28;20026;-78
2023/04/09 10:54:34;;;;;;;36.33;25.80;;;;;;;;;;4978191;28;20049;-78
2023/04/09 10:57:06;;;;;;;33.25;26.13;;;;;;;;;;4978249;28;20402;-79
2023/04/09 10:59:32;;;;;;;;;;;;;;;;;;4977774;28;20027;-79
2023/04/09 11:01:58;;;;;;;37.92;27.23;;;;;;;;;;4978946;28;20231;-78
2023/04/09 11:04:31;;;;;;;35.53;27.23;;;;;;;;;;4978879;28;20436;-79
2023/04/09 11:06:59;;;;;;;36.25;27.02;;;;;;;;;;4978835;28;20051;-79
2023/04/09 11:09:25;;;;;;;34.95;26.15;;;;;;;;;;4978949;28;20023;-79
2023/04/09 11:11:52;;;;;;;34.50;24.55;;;;;;;;;;4977751;28;20030;-79
2023/04/09 11:14:19;;;;;;;31.88;25.35;;;;;;;;;;4979316;28;20027;-78
2023/04/09 11:16:47;;;;;;;33.35;25.30;;;;;;;;;;4978354;28;20047;-79
2023/04/09 11:19:13;;;;;;;33.67;25.25;;;;;;;;;;4978649;28;20070;-79
2023/04/09 11:21:45;;;;;;;34.25;26.15;;;;;;;;;;4978423;28;20366;-79
2023/04/09 11:24:15;;;;;;;34.35;26.27;;;;;;;;;;4978592;28;20520;-78
2023/04/09 11:26:41;;;;;;;32.92;25.60;;;;;;;;;;4978636;28;20031;-78
2023/04/09 11:29:10;;;;;;;32.05;25.48;;;;;;;;;;4995278;28;20050;-79
2023/04/09 11:31:36;;;;;;;31.35;24.45;;;;;;;;;;4997989;28;20034;-79
2023/04/09 11:34:02;;;;;;;30.70;24.48;;;;;;;;;;4997620;28;20031;-79
2023/04/09 11:36:29;;;;;;;34.10;26.52;;;;;;;;;;4998491;28;20026;-79
2023/04/09 11:38:55;;;;;;;33.55;24.42;;;;;;;;;;4996684;28;20340;-79
2023/04/09 11:41:36;;;;;;;34.80;26.00;;;;;;;;;;4997752;28;20160;-78
2023/04/09 11:44:06;;;;;;;35.78;26.20;;;;;;;;;;4996599;28;20019;-78
2023/04/09 11:46:32;;;;;;;38.65;27.42;;;;;;;;;;4981397;28;20027;-79
2023/04/09 11:48:58;;;;;;;37.08;26.88;;;;;;;;;;4978493;28;20051;-78
2023/04/09 11:51:26;;;;;;;40.00;27.27;;;;;;;;;;4978131;28;20117;-79
2023/04/09 11:53:52;;;;;;;36.45;27.08;;;;;;;;;;4978135;28;20026;-79
2023/04/09 11:56:19;;;;;;;37.35;28.00;;;;;;;;;;4979454;28;20031;-78
2023/04/09 11:58:46;;;;;;;35.17;26.95;;;;;;;;;;4987331;28;20065;-78
2023/04/09 12:01:12;;;;;;;34.20;25.67;;;;;;;;;;4980208;28;20037;-78
2023/04/09 12:03:38;;;;;;;41.63;31.70;;;;;;;;;;4978092;28;20158;-78
2023/04/09 12:06:11;;;;;;;42.63;31.50;;;;;;;;;;4978165;28;20027;-78
2023/04/09 12:08:37;;;;;;;40.63;29.15;;;;;;;;;;4977176;28;20062;-78
2023/04/09 12:11:09;;;;;;;38.92;29.27;;;;;;;;;;4980835;28;20313;-78
2023/04/09 12:13:35;;;;;;;35.70;26.90;;;;;;;;;;4981926;28;20030;-78
2023/04/09 12:16:04;;;;;;;36.72;27.48;;;;;;;;;;4980077;28;20049;-78
2023/04/09 12:18:30;;;;;;;46.75;31.75;;;;;;;;;;4981948;28;20061;-78
2023/04/09 12:20:56;;;;;;;36.72;27.90;;;;;;;;;;4982734;28;20027;-94
2023/04/09 12:23:23;;;;;;;35.78;27.17;;;;;;;;;;4982827;28;20307;-93
2023/04/09 12:25:49;;;;;;;41.28;29.88;;;;;;;;;;4982597;28;20027;-94
2023/04/09 12:28:34;;;;;;;38.92;29.52;;;;;;;;;;4981566;28;20380;-95
2023/04/09 12:31:02;;;;;;;38.08;27.83;;;;;;;;;;4981277;28;20041;-94
2023/04/09 12:33:28;;;;;;;40.17;29.38;;;;;;;;;;4982609;28;20026;-95
2023/04/09 12:35:57;;;;;;;33.63;26.45;;;;;;;;;;4982399;28;20121;-94
2023/04/09 12:38:23;;;;;;;36.28;26.20;;;;;;;;;;4982483;28;20031;-94
2023/04/09 12:40:49;;;;;;;36.20;26.00;;;;;;;;;;4983655;28;20034;-94
2023/04/09 12:43:15;;;;;;;39.53;29.30;;;;;;;;;;5000613;28;20427;-93
2023/04/09 12:45:41;;;;;;;31.63;24.33;;;;;;;;;;5001739;28;20022;-94
2023/04/09 12:48:07;;;;;;;33.55;26.42;;;;;;;;;;5000508;28;20034;-95
2023/04/09 12:50:33;;;;;;;38.25;27.90;;;;;;;;;;5000693;28;20041;-93
2023/04/09 12:52:59;;;;;;;35.72;25.70;;;;;;;;;;5000694;28;20022;-95
2023/04/09 12:55:26;;;;;;;37.53;24.40;;;;;;;;;;5000464;28;20027;-94
2023/04/09 13:00:37;;;;;;;36.80;26.60;;;;;;;;;;4987512;28;20487;-95
2023/04/09 13:03:03;;;;;;;36.95;26.83;;;;;;;;;;5001635;28;20062;-95
2023/04/09 13:05:34;;;;;;;33.53;25.23;;;;;;;;;;5000322;28;20298;-94
2023/04/09 13:08:01;;;;;;;29.90;24.50;;;;;;;;;;5001547;28;20022;-94
2023/04/09 13:10:27;;;;;;;34.65;26.98;;;;;;;;;;5000305;28;20302;-94
2023/04/09 13:12:53;;;;;;;33.90;25.15;;;;;;;;;;5000505;28;20125;-95
2023/04/09 13:15:19;;;;;;;31.23;25.38;;;;;;;;;;4994950;28;20397;-95
2023/04/09 13:17:45;;;;;;;33.05;25.33;;;;;;;;;;4980299;28;20043;-95
2023/04/09 13:20:11;;;;;;;30.65;24.17;;;;;;;;;;4981782;28;20034;-95
2023/04/09 13:22:37;;;;;;;35.28;25.48;;;;;;;;;;4989587;28;20413;-95
2023/04/09 13:25:04;;;;;;;29.40;22.98;;;;;;;;;;5000293;28;20030;-96
2023/04/09 13:27:30;;;;;;;32.40;24.20;;;;;;;;;;5000257;28;20026;-96
2023/04/09 13:29:56;;;;;;;33.00;25.13;;;;;;;;;;5001297;28;20026;-94
2023/04/09 13:32:23;;;;;;;27.73;21.88;;;;;;;;;;5001059;28;20026;-94
2023/04/09 13:34:49;;;;;;;31.55;25.27;;;;;;;;;;5000862;28;20030;-95
2023/04/09 13:37:15;;;;;;;33.00;25.33;;;;;;;;;;5000806;28;20030;-95
2023/04/09 13:39:41;;;;;;;29.88;23.45;;;;;;;;;;5000863;28;20038;-96
2023/04/09 13:42:08;;;;;;;31.05;23.55;;;;;;;;;;5001786;28;20054;-95
2023/04/09 13:44:34;;;;;;;27.38;21.98;;;;;;;;;;4999750;28;20026;-93
2023/04/09 13:47:00;;;;;;;26.05;21.88;;;;;;;;;;5000793;28;20106;-94
2023/04/09 13:49:27;;;;;;;28.02;21.85;;;;;;;;;;4999319;28;20034;-94
2023/04/09 13:51:54;;;;;;;29.30;23.30;;;;;;;;;;5000659;28;20045;-94
2023/04/09 13:54:20;;;;;;;28.10;21.85;;;;;;;;;;4993661;28;20109;-95
2023/04/09 13:56:46;;;;;;;27.38;20.25;;;;;;;;;;4980244;28;20027;-94
2023/04/09 13:59:12;;;;;;;27.77;22.10;;;;;;;;;;4980055;28;20129;-94
2023/04/09 14:01:39;;;;;;;24.58;20.60;;;;;;;;;;4979702;28;20023;-94
2023/04/09 14:04:06;;;;;;;25.98;21.35;;;;;;;;;;4980693;28;20417;-95
2023/04/09 14:06:32;;;;;;;30.77;23.45;;;;;;;;;;4979779;28;20019;-95
2023/04/09 14:08:58;;;;;;;27.23;21.35;;;;;;;;;;4979620;28;20026;-94
2023/04/09 14:11:24;;;;;;;30.85;24.40;;;;;;;;;;4979655;28;20042;-96
2023/04/09 14:13:50;;;;;;;22.48;19.23;;;;;;;;;;4999605;28;20109;-96
2023/04/09 14:16:16;;;;;;;26.38;20.85;;;;;;;;;;4998987;28;20313;-94
2023/04/09 14:18:42;;;;;;;25.70;21.45;;;;;;;;;;4995002;28;20031;-94
2023/04/09 14:21:08;;;;;;;33.60;25.02;;;;;;;;;;4980782;28;20031;-96
2023/04/09 14:23:34;;;;;;;33.35;26.00;;;;;;;;;;4981047;28;20027;-96
2023/04/09 14:26:02;;;;;;;26.50;22.77;;;;;;;;;;4979825;28;20023;-95
2023/04/09 14:31:50;;;;;;;29.83;22.40;;;;;;;;;;4980624;28;20436;-95
2023/04/09 14:34:16;;;;;;;27.55;22.65;;;;;;;;;;4979963;28;20027;-94
2023/04/09 14:36:42;;;;;;;29.27;22.92;;;;;;;;;;4979006;28;20030;-94
2023/04/09 14:39:08;;;;;;;29.52;22.50;;;;;;;;;;4979959;28;20398;-94
2023/04/09 14:41:35;;;;;;;30.45;23.35;;;;;;;;;;4980179;28;20064;-95
2023/04/09 14:47:05;;;;;;;30.05;23.17;;;;;;;;;;4982198;28;20045;-94
2023/04/09 14:49:31;;;;;;;28.80;23.05;;;;;;;;;;4979707;28;20066;-87
2023/04/09 14:51:58;;;;;;;30.15;22.17;;;;;;;;;;4987334;28;20038;-83
2023/04/09 14:54:24;;;;;;;34.20;23.15;;;;;;;;;;4988713;28;20065;-83
2023/04/09 14:56:50;;;;;;;31.65;25.02;;;;;;;;;;4979296;28;20115;-84
2023/04/09 14:59:16;;;;;;;29.65;24.42;;;;;;;;;;4979214;28;20031;-83
2023/04/09 15:01:42;;;;;;;28.55;20.90;;;;;;;;;;4979160;28;20026;-84
2023/04/09 15:04:09;;;;;;;31.85;23.60;;;;;;;;;;4979182;28;20046;-84
2023/04/09 15:06:35;;;;;;;28.88;22.35;;;;;;;;;;4977658;28;20111;-84
2023/04/09 15:09:01;;;;;;;29.08;22.67;;;;;;;;;;4978000;28;20027;-83
2023/04/09 15:11:27;;;;;;;30.90;21.55;;;;;;;;;;4977965;28;20039;-83
2023/04/09 15:14:12;;;;;;;27.55;22.23;;;;;;;;;;4978890;28;20027;-84
2023/04/09 15:16:38;;;;;;;29.48;22.55;;;;;;;;;;4995700;28;20046;-84
2023/04/09 15:19:04;;;;;;;29.63;23.08;;;;;;;;;;4997127;28;20027;-84
2023/04/09 15:21:30;;;;;;;30.30;23.48;;;;;;;;;;4998247;28;20062;-84
2023/04/09 15:23:57;;;;;;;37.28;26.52;;;;;;;;;;4998334;28;20014;-84
2023/04/09 15:26:24;;;;;;;32.13;24.35;;;;;;;;;;4998821;28;20034;-94
2023/04/09 15:34:59;;;;;;;33.75;25.42;;;;;;;;;;4998743;28;20072;-95
2023/04/09 15:37:25;;;;;;;28.73;22.25;;;;;;;;;;4998902;28;20049;-95